sensor_id;sensor_type;location;lat;lon;timestamp;pressure;altitude;pressure_sealevel;temperature;humidity
67397;BME280;57728;50.448;18.824;2023-03-18T00:01:43;98006.94;;;5.23;43.38
67397;BME280;57728;50.448;18.824;2023-03-18T00:03:46;97938.34;;;4.75;43.57
67397;BME280;57728;50.448;18.824;2023-03-18T00:05:48;98001.50;;;5.16;43.46
67397;BME280;57728;50.448;18.824;2023-03-18T00:07:50;98022.13;;;5.24;43.78
67397;BME280;57728;50.448;18.824;2023-03-18T00:09:52;97995.41;;;5.07;43.70
67397;BME280;57728;50.448;18.824;2023-03-18T00:11:54;98022.31;;;5.22;43.63
67397;BME280;57728;50.448;18.824;2023-03-18T00:13:57;97996.47;;;5.06;43.76
67397;BME280;57728;50.448;18.824;2023-03-18T00:16:01;98023.16;;;5.23;43.66
67397;BME280;57728;50.448;18.824;2023-03-18T00:18:04;98006.47;;;5.12;43.71
67397;BME280;57728;50.448;18.824;2023-03-18T00:20:06;97971.44;;;4.91;43.74
67397;BME280;57728;50.448;18.824;2023-03-18T00:22:10;98015.72;;;5.03;43.97
67397;BME280;57728;50.448;18.824;2023-03-18T00:24:11;97919.31;;;4.55;43.79
67397;BME280;57728;50.448;18.824;2023-03-18T00:26:13;97943.88;;;4.67;43.98
67397;BME280;57728;50.448;18.824;2023-03-18T00:28:16;97973.63;;;4.80;44.04
67397;BME280;57728;50.448;18.824;2023-03-18T00:30:18;98004.94;;;5.03;44.15
67397;BME280;57728;50.448;18.824;2023-03-18T00:32:20;97941.78;;;4.62;44.30
67397;BME280;57728;50.448;18.824;2023-03-18T00:34:23;97984.22;;;4.82;44.34
67397;BME280;57728;50.448;18.824;2023-03-18T00:36:24;98012.16;;;4.96;44.60
67397;BME280;57728;50.448;18.824;2023-03-18T00:38:26;98006.31;;;4.92;44.57
67397;BME280;57728;50.448;18.824;2023-03-18T00:40:29;97888.09;;;4.18;44.48
67397;BME280;57728;50.448;18.824;2023-03-18T00:42:43;97924.50;;;4.35;44.69
67397;BME280;57728;50.448;18.824;2023-03-18T00:44:50;97978.34;;;4.72;44.77
67397;BME280;57728;50.448;18.824;2023-03-18T00:46:54;97958.91;;;4.55;44.68
67397;BME280;57728;50.448;18.824;2023-03-18T00:48:58;97998.69;;;4.74;44.82
67397;BME280;57728;50.448;18.824;2023-03-18T00:51:03;97981.38;;;4.62;44.95
67397;BME280;57728;50.448;18.824;2023-03-18T00:53:06;97975.75;;;4.57;45.03
67397;BME280;57728;50.448;18.824;2023-03-18T00:55:08;97980.75;;;4.60;45.38
67397;BME280;57728;50.448;18.824;2023-03-18T00:57:10;97985.47;;;4.58;45.26
67397;BME280;57728;50.448;18.824;2023-03-18T00:59:13;97943.16;;;4.30;45.55
67397;BME280;57728;50.448;18.824;2023-03-18T01:01:15;97918.50;;;4.11;45.56
67397;BME280;57728;50.448;18.824;2023-03-18T01:03:17;97971.22;;;4.42;45.69
67397;BME280;57728;50.448;18.824;2023-03-18T01:05:20;97977.09;;;4.46;45.82
67397;BME280;57728;50.448;18.824;2023-03-18T01:07:23;97979.31;;;4.42;45.91
67397;BME280;57728;50.448;18.824;2023-03-18T01:09:25;97708.34;;;2.75;45.87
67397;BME280;57728;50.448;18.824;2023-03-18T01:11:28;97975.16;;;4.40;45.91
67397;BME280;57728;50.448;18.824;2023-03-18T01:13:30;97906.97;;;3.96;46.07
67397;BME280;57728;50.448;18.824;2023-03-18T01:15:31;97851.66;;;3.57;46.32
67397;BME280;57728;50.448;18.824;2023-03-18T01:17:34;97931.97;;;4.11;46.07
67397;BME280;57728;50.448;18.824;2023-03-18T01:19:35;97968.69;;;4.34;46.26
67397;BME280;57728;50.448;18.824;2023-03-18T01:21:37;97941.97;;;4.18;46.29
67397;BME280;57728;50.448;18.824;2023-03-18T01:23:40;97890.06;;;3.87;46.46
67397;BME280;57728;50.448;18.824;2023-03-18T01:25:43;97962.63;;;4.32;46.35
67397;BME280;57728;50.448;18.824;2023-03-18T01:27:46;97956.41;;;4.32;46.44
67397;BME280;57728;50.448;18.824;2023-03-18T01:29:50;97938.47;;;4.17;46.56
67397;BME280;57728;50.448;18.824;2023-03-18T01:31:55;97895.44;;;3.87;46.59
67397;BME280;57728;50.448;18.824;2023-03-18T01:33:58;97892.75;;;3.87;46.51
67397;BME280;57728;50.448;18.824;2023-03-18T01:36:00;97906.75;;;3.98;46.58
67397;BME280;57728;50.448;18.824;2023-03-18T01:38:05;97943.06;;;4.23;46.63
67397;BME280;57728;50.448;18.824;2023-03-18T01:40:08;97926.31;;;4.06;46.73
67397;BME280;57728;50.448;18.824;2023-03-18T01:42:12;97881.94;;;3.81;46.68
67397;BME280;57728;50.448;18.824;2023-03-18T01:44:22;97900.84;;;3.87;46.70
67397;BME280;57728;50.448;18.824;2023-03-18T01:46:36;97849.56;;;3.59;46.83
67397;BME280;57728;50.448;18.824;2023-03-18T01:48:41;97897.97;;;3.89;47.01
67397;BME280;57728;50.448;18.824;2023-03-18T01:50:50;97842.09;;;3.54;47.01
67397;BME280;57728;50.448;18.824;2023-03-18T01:53:02;97925.03;;;4.02;47.08
67397;BME280;57728;50.448;18.824;2023-03-18T01:55:12;97922.66;;;3.92;47.14
67397;BME280;57728;50.448;18.824;2023-03-18T01:57:19;97868.06;;;3.62;47.04
67397;BME280;57728;50.448;18.824;2023-03-18T01:59:26;97911.44;;;3.89;47.31
67397;BME280;57728;50.448;18.824;2023-03-18T02:01:46;97933.75;;;4.04;47.29
67397;BME280;57728;50.448;18.824;2023-03-18T02:03:52;97885.94;;;3.70;47.25
67397;BME280;57728;50.448;18.824;2023-03-18T02:05:55;97929.72;;;3.93;47.30
67397;BME280;57728;50.448;18.824;2023-03-18T02:07:58;97930.16;;;3.97;47.46
67397;BME280;57728;50.448;18.824;2023-03-18T02:10:04;97834.19;;;3.31;47.37
67397;BME280;57728;50.448;18.824;2023-03-18T02:12:14;97933.22;;;3.94;47.55
67397;BME280;57728;50.448;18.824;2023-03-18T02:14:33;97929.91;;;3.92;47.55
67397;BME280;57728;50.448;18.824;2023-03-18T02:16:46;97931.13;;;3.89;47.66
67397;BME280;57728;50.448;18.824;2023-03-18T02:18:56;97881.84;;;3.52;47.63
67397;BME280;57728;50.448;18.824;2023-03-18T02:21:18;97933.91;;;3.81;47.83
67397;BME280;57728;50.448;18.824;2023-03-18T02:28:36;97898.22;;;3.57;48.15
67397;BME280;57728;50.448;18.824;2023-03-18T02:30:44;97875.44;;;3.38;48.13
67397;BME280;57728;50.448;18.824;2023-03-18T02:32:51;97930.91;;;3.69;48.32
67397;BME280;57728;50.448;18.824;2023-03-18T02:34:58;97858.03;;;3.19;48.19
67397;BME280;57728;50.448;18.824;2023-03-18T02:37:04;97928.56;;;3.66;48.37
67397;BME280;57728;50.448;18.824;2023-03-18T02:39:12;97941.78;;;3.61;48.45
67397;BME280;57728;50.448;18.824;2023-03-18T02:41:20;97843.69;;;2.97;48.57
67397;BME280;57728;50.448;18.824;2023-03-18T02:43:30;97937.03;;;3.63;48.25
67397;BME280;57728;50.448;18.824;2023-03-18T02:48:23;97813.00;;;2.77;48.60
67397;BME280;57728;50.448;18.824;2023-03-18T02:50:30;97920.19;;;3.39;48.76
67397;BME280;57728;50.448;18.824;2023-03-18T02:52:32;97950.13;;;3.51;48.89
67397;BME280;57728;50.448;18.824;2023-03-18T02:54:34;97914.81;;;3.24;49.10
67397;BME280;57728;50.448;18.824;2023-03-18T02:56:39;97950.91;;;3.45;49.06
67397;BME280;57728;50.448;18.824;2023-03-18T02:58:43;97911.75;;;3.13;49.06
67397;BME280;57728;50.448;18.824;2023-03-18T03:00:46;97943.75;;;3.37;49.17
67397;BME280;57728;50.448;18.824;2023-03-18T03:02:47;97917.59;;;3.16;49.39
67397;BME280;57728;50.448;18.824;2023-03-18T03:04:49;97890.63;;;2.95;49.45
67397;BME280;57728;50.448;18.824;2023-03-18T03:06:54;97945.22;;;3.25;49.55
67397;BME280;57728;50.448;18.824;2023-03-18T03:09:13;97950.81;;;3.23;49.52
67397;BME280;57728;50.448;18.824;2023-03-18T03:11:17;97781.00;;;2.22;49.59
67397;BME280;57728;50.448;18.824;2023-03-18T03:13:21;97912.22;;;3.01;49.56
67397;BME280;57728;50.448;18.824;2023-03-18T03:15:24;97945.78;;;3.20;49.72
67397;BME280;57728;50.448;18.824;2023-03-18T03:17:31;97908.44;;;2.96;49.73
67397;BME280;57728;50.448;18.824;2023-03-18T03:19:34;97873.72;;;2.71;49.86
67397;BME280;57728;50.448;18.824;2023-03-18T03:21:37;97923.81;;;3.02;49.89
67397;BME280;57728;50.448;18.824;2023-03-18T03:23:39;97949.25;;;3.14;49.89
67397;BME280;57728;50.448;18.824;2023-03-18T03:25:42;97787.69;;;2.11;50.24
67397;BME280;57728;50.448;18.824;2023-03-18T03:27:44;97891.53;;;2.72;50.04
67397;BME280;57728;50.448;18.824;2023-03-18T03:29:45;97951.63;;;3.09;50.29
67397;BME280;57728;50.448;18.824;2023-03-18T03:31:48;97819.28;;;2.24;50.24
67397;BME280;57728;50.448;18.824;2023-03-18T03:33:49;97895.72;;;2.74;50.40
67397;BME280;57728;50.448;18.824;2023-03-18T03:35:51;97929.84;;;2.89;50.49
67397;BME280;57728;50.448;18.824;2023-03-18T03:37:53;97909.34;;;2.73;50.48
67397;BME280;57728;50.448;18.824;2023-03-18T03:39:57;97956.47;;;2.99;50.65
67397;BME280;57728;50.448;18.824;2023-03-18T03:41:59;97774.66;;;1.85;50.54
67397;BME280;57728;50.448;18.824;2023-03-18T03:44:02;97954.31;;;2.94;50.87
67397;BME280;57728;50.448;18.824;2023-03-18T03:46:04;97901.88;;;2.60;50.97
67397;BME280;57728;50.448;18.824;2023-03-18T03:48:05;97945.03;;;2.82;50.94
67397;BME280;57728;50.448;18.824;2023-03-18T03:50:10;97957.84;;;2.95;51.11
67397;BME280;57728;50.448;18.824;2023-03-18T03:52:12;97947.09;;;2.95;51.11
67397;BME280;57728;50.448;18.824;2023-03-18T03:54:15;97931.78;;;2.80;51.07
67397;BME280;57728;50.448;18.824;2023-03-18T03:56:17;97947.28;;;2.93;51.02
67397;BME280;57728;50.448;18.824;2023-03-18T03:58:19;97952.84;;;2.91;51.25
67397;BME280;57728;50.448;18.824;2023-03-18T04:00:22;97937.97;;;2.81;51.33
67397;BME280;57728;50.448;18.824;2023-03-18T04:02:25;97957.56;;;2.89;51.11
67397;BME280;57728;50.448;18.824;2023-03-18T04:04:28;97943.34;;;2.81;51.21
67397;BME280;57728;50.448;18.824;2023-03-18T04:06:32;97890.94;;;2.47;51.37
67397;BME280;57728;50.448;18.824;2023-03-18T04:08:36;97947.81;;;2.73;51.40
67397;BME280;57728;50.448;18.824;2023-03-18T04:10:37;97957.00;;;2.79;51.44
67397;BME280;57728;50.448;18.824;2023-03-18T04:12:43;97896.75;;;2.35;51.60
67397;BME280;57728;50.448;18.824;2023-03-18T04:14:47;97900.38;;;2.43;51.59
67397;BME280;57728;50.448;18.824;2023-03-18T04:16:48;97918.75;;;2.54;51.56
67397;BME280;57728;50.448;18.824;2023-03-18T04:18:49;97877.81;;;2.29;51.70
67397;BME280;57728;50.448;18.824;2023-03-18T04:20:52;97960.31;;;2.81;51.66
67397;BME280;57728;50.448;18.824;2023-03-18T04:23:12;97856.78;;;2.17;51.79
67397;BME280;57728;50.448;18.824;2023-03-18T04:25:14;97964.88;;;2.81;51.88
67397;BME280;57728;50.448;18.824;2023-03-18T04:27:17;97908.75;;;2.48;52.03
67397;BME280;57728;50.448;18.824;2023-03-18T04:29:18;97949.19;;;2.69;51.93
67397;BME280;57728;50.448;18.824;2023-03-18T04:31:20;97897.69;;;2.43;52.01
67397;BME280;57728;50.448;18.824;2023-03-18T04:33:22;97935.75;;;2.69;51.81
67397;BME280;57728;50.448;18.824;2023-03-18T04:35:24;97962.66;;;2.84;51.85
67397;BME280;57728;50.448;18.824;2023-03-18T04:37:25;97962.81;;;2.83;51.82
67397;BME280;57728;50.448;18.824;2023-03-18T04:39:31;97962.81;;;2.83;51.96
67397;BME280;57728;50.448;18.824;2023-03-18T04:41:32;97958.47;;;2.82;51.74
67397;BME280;57728;50.448;18.824;2023-03-18T04:43:37;97944.63;;;2.70;51.80
67397;BME280;57728;50.448;18.824;2023-03-18T04:45:39;97906.25;;;2.46;51.92
67397;BME280;57728;50.448;18.824;2023-03-18T04:47:42;97878.94;;;2.34;51.83
67397;BME280;57728;50.448;18.824;2023-03-18T04:49:46;97957.44;;;2.83;51.80
67397;BME280;57728;50.448;18.824;2023-03-18T04:51:49;97950.88;;;2.70;51.99
67397;BME280;57728;50.448;18.824;2023-03-18T04:54:03;97950.50;;;2.73;51.88
67397;BME280;57728;50.448;18.824;2023-03-18T04:56:05;97940.47;;;2.67;52.03
67397;BME280;57728;50.448;18.824;2023-03-18T04:58:17;97938.81;;;2.66;52.04
67397;BME280;57728;50.448;18.824;2023-03-18T05:00:31;97918.38;;;2.57;52.12
67397;BME280;57728;50.448;18.824;2023-03-18T05:02:45;97962.81;;;2.83;52.29
67397;BME280;57728;50.448;18.824;2023-03-18T05:04:48;97945.41;;;2.79;52.05
67397;BME280;57728;50.448;18.824;2023-03-18T05:06:49;97950.97;;;2.92;52.05
67397;BME280;57728;50.448;18.824;2023-03-18T05:08:55;97921.38;;;2.77;51.93
67397;BME280;57728;50.448;18.824;2023-03-18T05:10:59;97939.03;;;2.95;52.06
67397;BME280;57728;50.448;18.824;2023-03-18T05:13:01;97954.88;;;3.04;52.07
67397;BME280;57728;50.448;18.824;2023-03-18T05:15:07;97926.97;;;2.90;51.83
67397;BME280;57728;50.448;18.824;2023-03-18T05:17:15;97943.47;;;3.02;51.85
67397;BME280;57728;50.448;18.824;2023-03-18T05:19:25;97958.31;;;3.13;51.65
67397;BME280;57728;50.448;18.824;2023-03-18T05:21:37;97956.09;;;3.17;51.64
67397;BME280;57728;50.448;18.824;2023-03-18T05:23:40;97941.63;;;3.03;51.64
67397;BME280;57728;50.448;18.824;2023-03-18T05:25:42;97959.81;;;3.16;51.53
67397;BME280;57728;50.448;18.824;2023-03-18T05:27:44;97964.25;;;3.23;51.57
67397;BME280;57728;50.448;18.824;2023-03-18T05:29:54;97951.06;;;3.14;51.20
67397;BME280;57728;50.448;18.824;2023-03-18T05:32:07;97895.78;;;2.81;51.19
67397;BME280;57728;50.448;18.824;2023-03-18T05:34:10;97918.81;;;2.99;51.21
67397;BME280;57728;50.448;18.824;2023-03-18T05:36:13;97872.91;;;2.70;51.14
67397;BME280;57728;50.448;18.824;2023-03-18T05:38:28;97906.94;;;2.93;51.20
67397;BME280;57728;50.448;18.824;2023-03-18T05:40:29;97925.38;;;2.96;51.16
67397;BME280;57728;50.448;18.824;2023-03-18T05:42:43;97977.25;;;3.35;51.21
67397;BME280;57728;50.448;18.824;2023-03-18T05:44:47;97957.03;;;3.24;51.23
67397;BME280;57728;50.448;18.824;2023-03-18T05:46:53;97984.59;;;3.41;51.16
67397;BME280;57728;50.448;18.824;2023-03-18T05:49:20;97952.66;;;3.23;51.35
67397;BME280;57728;50.448;18.824;2023-03-18T05:51:43;97986.63;;;3.54;51.26
67397;BME280;57728;50.448;18.824;2023-03-18T05:53:49;97928.25;;;3.24;51.34
67397;BME280;57728;50.448;18.824;2023-03-18T05:56:02;97942.72;;;3.38;51.08
67397;BME280;57728;50.448;18.824;2023-03-18T05:58:08;97962.84;;;3.57;51.09
67397;BME280;57728;50.448;18.824;2023-03-18T06:00:13;97984.81;;;3.76;50.85
67397;BME280;57728;50.448;18.824;2023-03-18T06:02:20;97961.25;;;3.63;50.69
67397;BME280;57728;50.448;18.824;2023-03-18T06:04:21;97968.66;;;3.76;50.80
67397;BME280;57728;50.448;18.824;2023-03-18T06:06:26;97962.16;;;3.70;50.63
67397;BME280;57728;50.448;18.824;2023-03-18T06:08:29;97931.00;;;3.61;50.66
67397;BME280;57728;50.448;18.824;2023-03-18T06:10:31;97888.25;;;3.36;50.36
67397;BME280;57728;50.448;18.824;2023-03-18T06:12:34;97981.81;;;4.01;50.36
67397;BME280;57728;50.448;18.824;2023-03-18T06:14:36;97971.41;;;3.98;50.41
67397;BME280;57728;50.448;18.824;2023-03-18T06:16:40;97884.06;;;3.49;50.55
67397;BME280;57728;50.448;18.824;2023-03-18T06:18:43;97951.84;;;3.89;50.11
67397;BME280;57728;50.448;18.824;2023-03-18T06:20:49;97988.22;;;4.21;50.33
67397;BME280;57728;50.448;18.824;2023-03-18T06:22:51;97976.81;;;4.19;50.14
67397;BME280;57728;50.448;18.824;2023-03-18T06:24:53;97979.47;;;4.34;50.01
67397;BME280;57728;50.448;18.824;2023-03-18T06:26:55;97999.75;;;4.52;49.80
67397;BME280;57728;50.448;18.824;2023-03-18T06:28:57;97993.19;;;4.61;49.65
67397;BME280;57728;50.448;18.824;2023-03-18T06:30:59;97987.41;;;4.64;49.63
67397;BME280;57728;50.448;18.824;2023-03-18T06:33:04;97985.00;;;4.76;49.32
67397;BME280;57728;50.448;18.824;2023-03-18T06:35:06;97971.53;;;4.76;48.94
67397;BME280;57728;50.448;18.824;2023-03-18T06:37:11;97996.22;;;5.01;48.89
67397;BME280;57728;50.448;18.824;2023-03-18T06:39:14;97995.22;;;5.09;48.76
67397;BME280;57728;50.448;18.824;2023-03-18T06:41:18;97853.31;;;4.23;48.75
67397;BME280;57728;50.448;18.824;2023-03-18T06:43:32;98007.34;;;5.20;48.37
67397;BME280;57728;50.448;18.824;2023-03-18T06:45:36;97980.72;;;5.10;48.34
67397;BME280;57728;50.448;18.824;2023-03-18T06:47:40;98010.16;;;5.33;48.45
67397;BME280;57728;50.448;18.824;2023-03-18T06:49:42;98006.25;;;5.42;48.25
67397;BME280;57728;50.448;18.824;2023-03-18T06:51:50;97968.97;;;5.24;48.12
67397;BME280;57728;50.448;18.824;2023-03-18T06:53:52;97989.25;;;5.48;48.16
67397;BME280;57728;50.448;18.824;2023-03-18T06:55:54;98021.78;;;5.75;47.48
67397;BME280;57728;50.448;18.824;2023-03-18T06:58:00;97978.94;;;5.59;47.38
67397;BME280;57728;50.448;18.824;2023-03-18T07:00:12;97990.41;;;5.67;46.69
67397;BME280;57728;50.448;18.824;2023-03-18T07:02:15;98030.31;;;6.07;46.42
67397;BME280;57728;50.448;18.824;2023-03-18T07:04:19;98037.81;;;6.18;46.32
67397;BME280;57728;50.448;18.824;2023-03-18T07:06:20;98034.53;;;6.30;45.96
67397;BME280;57728;50.448;18.824;2023-03-18T07:08:22;97995.84;;;6.23;45.87
67397;BME280;57728;50.448;18.824;2023-03-18T07:10:28;97986.50;;;6.25;45.61
67397;BME280;57728;50.448;18.824;2023-03-18T07:12:38;97903.59;;;5.84;45.38
67397;BME280;57728;50.448;18.824;2023-03-18T07:14:41;97914.25;;;5.99;45.06
67397;BME280;57728;50.448;18.824;2023-03-18T07:16:48;97999.03;;;6.60;45.10
67397;BME280;57728;50.448;18.824;2023-03-18T07:18:50;97881.56;;;5.94;44.78
67397;BME280;57728;50.448;18.824;2023-03-18T07:20:52;97918.69;;;6.27;44.50
67397;BME280;57728;50.448;18.824;2023-03-18T07:23:11;98040.91;;;7.17;44.24
67397;BME280;57728;50.448;18.824;2023-03-18T07:25:14;97968.03;;;6.82;43.51
67397;BME280;57728;50.448;18.824;2023-03-18T07:27:16;97914.75;;;6.63;43.26
67397;BME280;57728;50.448;18.824;2023-03-18T07:29:18;97947.63;;;7.00;42.97
67397;BME280;57728;50.448;18.824;2023-03-18T07:31:21;98030.81;;;7.65;42.52
67397;BME280;57728;50.448;18.824;2023-03-18T07:33:23;97970.06;;;7.34;41.92
67397;BME280;57728;50.448;18.824;2023-03-18T07:35:24;98030.38;;;7.81;41.75
67397;BME280;57728;50.448;18.824;2023-03-18T07:37:27;98036.19;;;7.91;41.12
67397;BME280;57728;50.448;18.824;2023-03-18T07:39:28;98044.72;;;8.02;41.20
67397;BME280;57728;50.448;18.824;2023-03-18T07:41:30;97967.47;;;7.72;40.56
67397;BME280;57728;50.448;18.824;2023-03-18T07:43:32;98042.13;;;8.20;40.20
67397;BME280;57728;50.448;18.824;2023-03-18T07:45:33;98004.19;;;8.14;39.81
67397;BME280;57728;50.448;18.824;2023-03-18T07:47:35;98013.78;;;8.16;39.54
67397;BME280;57728;50.448;18.824;2023-03-18T07:49:37;97973.16;;;8.03;39.51
67397;BME280;57728;50.448;18.824;2023-03-18T07:51:39;97997.22;;;8.31;39.08
67397;BME280;57728;50.448;18.824;2023-03-18T07:53:41;97963.03;;;8.23;39.25
67397;BME280;57728;50.448;18.824;2023-03-18T07:55:45;98028.47;;;8.79;38.83
67397;BME280;57728;50.448;18.824;2023-03-18T07:57:47;98026.28;;;8.94;38.71
67397;BME280;57728;50.448;18.824;2023-03-18T07:59:49;97931.22;;;8.44;38.00
67397;BME280;57728;50.448;18.824;2023-03-18T08:01:51;98022.19;;;9.10;38.08
67397;BME280;57728;50.448;18.824;2023-03-18T08:03:59;97991.91;;;9.07;38.15
67397;BME280;57728;50.448;18.824;2023-03-18T08:06:02;97992.78;;;9.26;37.66
67397;BME280;57728;50.448;18.824;2023-03-18T08:08:06;97971.19;;;9.12;36.68
67397;BME280;57728;50.448;18.824;2023-03-18T08:10:08;97938.78;;;8.92;36.76
67397;BME280;57728;50.448;18.824;2023-03-18T08:12:11;97894.91;;;8.70;36.53
67397;BME280;57728;50.448;18.824;2023-03-18T08:14:14;98031.50;;;9.65;36.22
67397;BME280;57728;50.448;18.824;2023-03-18T08:16:16;97966.41;;;9.33;36.25
67397;BME280;57728;50.448;18.824;2023-03-18T08:18:18;97867.03;;;8.82;36.08
67397;BME280;57728;50.448;18.824;2023-03-18T08:20:20;97995.25;;;9.71;35.99
67397;BME280;57728;50.448;18.824;2023-03-18T08:22:22;97875.81;;;9.02;35.07
67397;BME280;57728;50.448;18.824;2023-03-18T08:24:25;98034.69;;;9.99;35.11
67397;BME280;57728;50.448;18.824;2023-03-18T08:26:28;97948.28;;;9.45;35.02
67397;BME280;57728;50.448;18.824;2023-03-18T08:28:29;98037.56;;;10.04;35.09
67397;BME280;57728;50.448;18.824;2023-03-18T08:30:30;98033.34;;;10.08;34.61
67397;BME280;57728;50.448;18.824;2023-03-18T08:32:33;97906.19;;;9.36;34.75
67397;BME280;57728;50.448;18.824;2023-03-18T08:34:35;98000.69;;;10.08;34.43
67397;BME280;57728;50.448;18.824;2023-03-18T08:36:39;97972.41;;;10.09;34.60
67397;BME280;57728;50.448;18.824;2023-03-18T08:38:43;97849.03;;;9.61;34.39
67397;BME280;57728;50.448;18.824;2023-03-18T08:40:45;98000.28;;;10.84;33.98
67397;BME280;57728;50.448;18.824;2023-03-18T08:42:50;98032.94;;;11.26;33.81
67397;BME280;57728;50.448;18.824;2023-03-18T08:44:52;97892.16;;;10.73;33.73
67397;BME280;57728;50.448;18.824;2023-03-18T08:46:54;97995.97;;;11.78;33.18
67397;BME280;57728;50.448;18.824;2023-03-18T08:48:56;98023.03;;;12.20;33.41
67397;BME280;57728;50.448;18.824;2023-03-18T08:51:04;97888.16;;;11.75;32.98
67397;BME280;57728;50.448;18.824;2023-03-18T08:53:09;97996.25;;;12.75;31.94
67397;BME280;57728;50.448;18.824;2023-03-18T08:55:13;97906.63;;;12.43;31.73
67397;BME280;57728;50.448;18.824;2023-03-18T08:57:15;97829.94;;;12.10;31.50
67397;BME280;57728;50.448;18.824;2023-03-18T08:59:17;97907.75;;;12.76;31.01
67397;BME280;57728;50.448;18.824;2023-03-18T09:01:18;97950.81;;;13.36;30.29
67397;BME280;57728;50.448;18.824;2023-03-18T09:03:23;97941.34;;;13.44;29.97
67397;BME280;57728;50.448;18.824;2023-03-18T09:05:24;97864.06;;;13.15;29.19
67397;BME280;57728;50.448;18.824;2023-03-18T09:07:26;97818.63;;;13.08;28.64
67397;BME280;57728;50.448;18.824;2023-03-18T09:09:29;97824.91;;;13.09;29.05
67397;BME280;57728;50.448;18.824;2023-03-18T09:11:30;97971.38;;;14.00;28.55
67397;BME280;57728;50.448;18.824;2023-03-18T09:13:32;97967.69;;;14.12;27.75
67397;BME280;57728;50.448;18.824;2023-03-18T09:15:34;97979.78;;;14.16;27.50
67397;BME280;57728;50.448;18.824;2023-03-18T09:17:37;97938.41;;;13.90;27.71
67397;BME280;57728;50.448;18.824;2023-03-18T09:19:40;97938.97;;;13.92;27.70
67397;BME280;57728;50.448;18.824;2023-03-18T09:21:42;97969.63;;;14.38;28.12
67397;BME280;57728;50.448;18.824;2023-03-18T09:23:46;97869.13;;;14.12;27.77
67397;BME280;57728;50.448;18.824;2023-03-18T09:25:53;97914.56;;;14.62;27.05
67397;BME280;57728;50.448;18.824;2023-03-18T09:27:55;97842.69;;;14.22;26.50
67397;BME280;57728;50.448;18.824;2023-03-18T09:29:57;98014.13;;;15.33;26.04
67397;BME280;57728;50.448;18.824;2023-03-18T09:31:59;97944.13;;;14.92;26.71
67397;BME280;57728;50.448;18.824;2023-03-18T09:34:01;97923.03;;;14.93;26.19
67397;BME280;57728;50.448;18.824;2023-03-18T09:36:03;97917.66;;;15.03;26.20
67397;BME280;57728;50.448;18.824;2023-03-18T09:38:05;97976.13;;;15.52;25.76
67397;BME280;57728;50.448;18.824;2023-03-18T09:40:26;97996.91;;;15.80;25.51
67397;BME280;57728;50.448;18.824;2023-03-18T09:45:33;97891.78;;;15.79;24.85
67397;BME280;57728;50.448;18.824;2023-03-18T09:50:38;98001.72;;;17.20;24.68
67397;BME280;57728;50.448;18.824;2023-03-18T09:53:15;97986.53;;;17.74;23.45
67397;BME280;57728;50.448;18.824;2023-03-18T09:55:28;97969.19;;;17.79;22.74
67397;BME280;57728;50.448;18.824;2023-03-18T09:57:56;97989.53;;;17.98;22.81
67397;BME280;57728;50.448;18.824;2023-03-18T10:00:17;97950.78;;;17.64;22.37
67397;BME280;57728;50.448;18.824;2023-03-18T10:02:39;97958.09;;;18.10;22.86
67397;BME280;57728;50.448;18.824;2023-03-18T10:04:52;97973.06;;;18.48;21.65
67397;BME280;57728;50.448;18.824;2023-03-18T10:07:07;97966.59;;;18.68;21.70
67397;BME280;57728;50.448;18.824;2023-03-18T10:09:33;97949.38;;;18.47;20.74
67397;BME280;57728;50.448;18.824;2023-03-18T10:16:29;97968.88;;;17.85;21.32
67397;BME280;57728;50.448;18.824;2023-03-18T10:18:40;97957.13;;;17.59;21.39
67397;BME280;57728;50.448;18.824;2023-03-18T10:23:05;97993.47;;;17.35;21.70
67397;BME280;57728;50.448;18.824;2023-03-18T10:32:44;97983.81;;;17.48;21.66
67397;BME280;57728;50.448;18.824;2023-03-18T10:35:00;97968.13;;;17.59;20.21
67397;BME280;57728;50.448;18.824;2023-03-18T10:37:35;97866.69;;;16.80;20.32
67397;BME280;57728;50.448;18.824;2023-03-18T10:39:51;97989.31;;;17.59;20.50
67397;BME280;57728;50.448;18.824;2023-03-18T10:41:55;97961.84;;;17.38;19.96
67397;BME280;57728;50.448;18.824;2023-03-18T10:46:26;97950.53;;;17.50;20.60
67397;BME280;57728;50.448;18.824;2023-03-18T10:48:41;97956.53;;;17.78;20.34
67397;BME280;57728;50.448;18.824;2023-03-18T10:53:56;97979.97;;;18.46;19.86
67397;BME280;57728;50.448;18.824;2023-03-18T10:56:10;97981.47;;;18.23;20.37
67397;BME280;57728;50.448;18.824;2023-03-18T10:58:15;97959.22;;;18.03;20.07
67397;BME280;57728;50.448;18.824;2023-03-18T11:00:28;97807.31;;;16.95;20.45
67397;BME280;57728;50.448;18.824;2023-03-18T11:02:37;97960.06;;;17.88;20.46
67397;BME280;57728;50.448;18.824;2023-03-18T11:04:46;97973.84;;;17.99;20.15
67397;BME280;57728;50.448;18.824;2023-03-18T11:07:00;97966.09;;;18.01;20.07
67397;BME280;57728;50.448;18.824;2023-03-18T11:09:13;97972.59;;;18.31;20.03
67397;BME280;57728;50.448;18.824;2023-03-18T11:11:29;97906.09;;;17.98;20.13
67397;BME280;57728;50.448;18.824;2023-03-18T11:13:34;97926.22;;;18.48;20.02
67397;BME280;57728;50.448;18.824;2023-03-18T11:15:37;97804.47;;;17.96;19.76
67397;BME280;57728;50.448;18.824;2023-03-18T11:17:47;97895.91;;;18.88;19.37
67397;BME280;57728;50.448;18.824;2023-03-18T11:20:20;97952.78;;;19.72;19.96
67397;BME280;57728;50.448;18.824;2023-03-18T11:22:26;97930.47;;;19.68;18.91
67397;BME280;57728;50.448;18.824;2023-03-18T11:24:29;97952.19;;;19.75;18.55
67397;BME280;57728;50.448;18.824;2023-03-18T11:26:47;97958.25;;;19.82;18.90
67397;BME280;57728;50.448;18.824;2023-03-18T11:29:17;97949.88;;;19.87;19.11
67397;BME280;57728;50.448;18.824;2023-03-18T11:31:25;97930.59;;;20.06;19.39
67397;BME280;57728;50.448;18.824;2023-03-18T11:33:30;97957.13;;;20.70;19.00
67397;BME280;57728;50.448;18.824;2023-03-18T11:35:45;97823.66;;;20.07;18.94
67397;BME280;57728;50.448;18.824;2023-03-18T11:37:52;97918.47;;;20.65;17.78